Evendale, Pennsylvania
Current Conditions -  °F | °C
As of 3:53 AM on Tuesday 21 Oct 2014 (Local Time) from KSEG Reporting Station
Overcast Overcast  
Wind Chill: 11°   Ceiling: 5500
Heat Index: 11°   Visibility: 10mi
Dew Point:   Wind: 0mph
Humidity: 80%   Direction: NA
Pressure: 29.86"   Gusts: NA
Location:  40.6987°N, 77.1242°W
Report Text: KSEG 210753Z AUTO 00000KT 10SM BKN055 OVC070 11/08 A2986 RMK AO2 SLP109 T01110078
Loading
Personal Weather Stations






























Interactive Weather Map
Tropical Storm Tracking
New forecast layout! Learn more

10-Day Weather Forecast

Advertisements
Track Severe Weather on mobile